createdAt,value
2019-02-23T00:01:19.067Z,99.90
2019-02-23T00:03:47.895Z,99.90
2019-02-23T00:06:16.859Z,99.90
2019-02-23T00:08:45.798Z,99.90
2019-02-23T00:11:14.865Z,99.90
2019-02-23T00:13:43.700Z,99.90
2019-02-23T00:16:12.688Z,99.90
2019-02-23T00:18:41.845Z,99.90
2019-02-23T00:21:10.741Z,99.90
2019-02-23T00:23:39.646Z,99.90
2019-02-23T00:26:08.725Z,99.90
2019-02-23T00:28:37.621Z,99.90
2019-02-23T00:31:06.586Z,99.90
2019-02-23T00:33:35.446Z,99.90
2019-02-23T00:36:04.330Z,99.90
2019-02-23T00:38:33.267Z,99.90
2019-02-23T00:41:02.154Z,99.90
2019-02-23T00:43:31.032Z,99.90
2019-02-23T00:46:00.181Z,99.90
2019-02-23T00:48:29.010Z,99.90
2019-02-23T00:50:57.926Z,99.90
2019-02-23T00:53:26.817Z,99.90
2019-02-23T00:55:55.722Z,99.90
2019-02-23T00:58:24.622Z,99.90
2019-02-23T01:00:53.506Z,99.90
2019-02-23T01:03:22.472Z,99.90
2019-02-23T01:05:51.526Z,99.90
2019-02-23T01:08:20.395Z,99.90
2019-02-23T01:10:57.709Z,99.90
2019-02-23T01:13:20.058Z,99.90
2019-02-23T01:15:48.842Z,99.90
2019-02-23T01:18:17.798Z,99.90
2019-02-23T01:20:46.714Z,99.90
2019-02-23T01:23:15.658Z,99.90
2019-02-23T01:25:44.472Z,99.90
2019-02-23T01:28:13.401Z,99.90
2019-02-23T01:30:42.273Z,99.90
2019-02-23T01:33:11.199Z,99.90
2019-02-23T01:35:40.104Z,99.90
2019-02-23T01:38:09.366Z,99.90
2019-02-23T01:40:38.370Z,99.90
2019-02-23T01:43:07.274Z,99.90
2019-02-23T01:45:42.332Z,99.90
2019-02-23T01:48:07.103Z,99.90
2019-02-23T01:50:36.341Z,99.90
2019-02-23T01:53:05.305Z,99.90
2019-02-23T01:55:34.217Z,99.90
2019-02-23T01:58:03.253Z,99.90
2019-02-23T02:00:32.986Z,99.90
2019-02-23T02:03:01.983Z,99.90
2019-02-23T02:05:30.898Z,99.90
2019-02-23T02:07:59.826Z,99.90
2019-02-23T02:10:29.248Z,99.90
2019-02-23T02:12:58.278Z,99.90
2019-02-23T02:15:27.211Z,99.90
2019-02-23T02:17:56.125Z,99.90
2019-02-23T02:20:24.993Z,99.90
2019-02-23T02:22:53.913Z,99.90
2019-02-23T02:25:22.708Z,99.90
2019-02-23T02:27:51.641Z,99.90
2019-02-23T02:30:20.635Z,99.90
2019-02-23T02:32:49.667Z,99.90
2019-02-23T02:35:18.626Z,99.90
2019-02-23T02:37:47.504Z,99.90
2019-02-23T02:40:16.430Z,99.90
2019-02-23T02:42:45.570Z,99.90
2019-02-23T02:45:14.549Z,99.90
2019-02-23T02:47:43.417Z,99.90
2019-02-23T02:50:23.825Z,99.90
2019-02-23T02:52:43.107Z,99.90
2019-02-23T02:55:12.106Z,99.90
2019-02-23T02:57:40.940Z,99.90
2019-02-23T03:00:11.878Z,99.90
2019-02-23T03:02:40.718Z,99.90
2019-02-23T03:05:09.962Z,99.90
2019-02-23T03:07:38.950Z,99.90
2019-02-23T03:10:07.964Z,99.90
2019-02-23T03:12:36.977Z,99.90
2019-02-23T03:15:06.974Z,99.90
2019-02-23T03:17:35.779Z,99.90
2019-02-23T03:20:05.286Z,99.90
2019-02-23T03:22:34.142Z,99.90
2019-02-23T03:25:03.081Z,99.90
2019-02-23T03:27:32.273Z,99.90
2019-02-23T03:30:01.199Z,99.90
2019-02-23T03:32:30.201Z,99.90
2019-02-23T03:34:59.055Z,99.90
2019-02-23T03:37:27.884Z,99.90
2019-02-23T03:39:56.808Z,99.90
2019-02-23T03:42:25.722Z,99.90
2019-02-23T03:44:54.562Z,99.90
2019-02-23T03:47:23.482Z,99.90
2019-02-23T03:49:52.362Z,99.90
2019-02-23T03:52:21.329Z,99.90
2019-02-23T03:54:50.247Z,99.90
2019-02-23T03:57:19.259Z,99.90
2019-02-23T03:59:48.132Z,99.90
2019-02-23T04:02:16.985Z,99.90
2019-02-23T04:04:45.956Z,99.90
2019-02-23T04:07:14.761Z,99.90
2019-02-23T04:09:43.683Z,99.90
2019-02-23T04:12:12.710Z,99.90
2019-02-23T04:14:41.573Z,99.90
2019-02-23T04:17:10.526Z,99.90
2019-02-23T04:19:39.386Z,99.90
2019-02-23T04:22:08.285Z,99.90
2019-02-23T04:24:37.181Z,99.90
2019-02-23T04:27:06.101Z,99.90
2019-02-23T04:29:35.131Z,99.90
2019-02-23T04:32:03.984Z,99.90
2019-02-23T04:34:32.901Z,99.90
2019-02-23T04:37:01.861Z,99.90
2019-02-23T04:39:30.797Z,99.90
2019-02-23T04:41:59.723Z,99.90
2019-02-23T04:44:28.607Z,99.90
2019-02-23T04:46:57.415Z,99.90
2019-02-23T04:49:26.437Z,99.90
2019-02-23T04:51:55.703Z,99.90
2019-02-23T05:06:55.088Z,99.90
2019-02-23T05:20:03.224Z,99.90
2019-02-23T05:22:42.917Z,99.90
2019-02-23T05:32:07.778Z,99.90
2019-02-23T05:35:34.504Z,99.90
2019-02-23T05:42:39.090Z,99.90
2019-02-23T06:03:33.587Z,99.90
2019-02-23T06:09:43.175Z,99.90
2019-02-23T06:12:44.623Z,99.90
2019-02-23T06:19:20.352Z,99.90
2019-02-23T06:28:55.670Z,99.90
2019-02-23T06:34:31.021Z,99.90
2019-02-23T06:37:11.098Z,99.90
2019-02-23T06:39:44.044Z,99.90
2019-02-23T06:42:26.848Z,99.90
2019-02-23T06:44:56.512Z,99.90
2019-02-23T06:50:42.607Z,99.90
2019-02-23T06:53:12.306Z,99.90
2019-02-23T06:55:41.908Z,99.90
2019-02-23T06:58:16.073Z,99.90
2019-02-23T07:00:45.377Z,99.90
2019-02-23T07:03:19.110Z,99.90
2019-02-23T07:05:49.044Z,99.90
2019-02-23T07:08:22.429Z,99.90
2019-02-23T07:10:51.911Z,99.90
2019-02-23T07:13:21.779Z,99.90
2019-02-23T07:15:51.064Z,99.90
2019-02-23T07:18:24.214Z,99.90
2019-02-23T07:20:59.647Z,99.90
2019-02-23T07:23:38.177Z,99.90
2019-02-23T07:26:07.536Z,99.90
2019-02-23T07:28:37.159Z,99.90
2019-02-23T07:31:19.724Z,99.90
2019-02-23T07:33:49.175Z,99.90
2019-02-23T07:36:23.490Z,99.90
2019-02-23T07:38:52.795Z,99.90
2019-02-23T07:41:23.868Z,99.90
2019-02-23T07:43:53.411Z,99.90
2019-02-23T07:46:23.093Z,99.90
2019-02-23T07:49:07.212Z,99.90
2019-02-23T07:51:36.531Z,99.90
2019-02-23T07:54:05.720Z,99.90
2019-02-23T07:56:35.256Z,99.90
2019-02-23T07:59:04.647Z,99.90
2019-02-23T08:01:34.055Z,99.90
2019-02-23T08:06:56.036Z,99.90
2019-02-23T08:09:25.783Z,99.90
2019-02-23T08:12:15.387Z,99.90
2019-02-23T08:14:45.115Z,99.90
2019-02-23T08:17:14.615Z,99.90
2019-02-23T08:19:44.299Z,99.90
2019-02-23T08:22:16.692Z,99.90
2019-02-23T08:24:48.247Z,99.90
2019-02-23T08:27:20.370Z,99.90
2019-02-23T08:29:49.734Z,99.90
2019-02-23T08:32:18.897Z,99.90
2019-02-23T08:34:55.013Z,99.90
2019-02-23T08:37:58.248Z,99.90
2019-02-23T08:40:42.320Z,99.90
2019-02-23T08:43:14.635Z,99.90
2019-02-23T08:45:44.378Z,99.90
2019-02-23T08:48:21.892Z,99.90
2019-02-23T08:50:53.035Z,99.90
2019-02-23T08:53:22.389Z,99.90
2019-02-23T08:55:55.018Z,99.90
2019-02-23T08:58:24.827Z,99.90
2019-02-23T09:00:55.535Z,99.90
2019-02-23T09:03:38.465Z,99.90
2019-02-23T09:06:10.430Z,99.90
2019-02-23T09:08:46.193Z,99.90
2019-02-23T09:11:34.984Z,99.90
2019-02-23T09:14:05.070Z,99.90
2019-02-23T09:16:43.787Z,99.90
2019-02-23T09:19:19.131Z,99.90
2019-02-23T09:21:51.696Z,99.90
2019-02-23T09:24:21.237Z,99.90
2019-02-23T09:27:23.443Z,99.90
2019-02-23T09:29:57.266Z,99.90
2019-02-23T09:32:26.630Z,99.90
2019-02-23T09:35:03.352Z,99.90
2019-02-23T09:37:39.397Z,99.90
2019-02-23T09:40:04.200Z,99.90
2019-02-23T09:42:33.890Z,99.90
2019-02-23T09:45:03.969Z,99.90
2019-02-23T09:48:07.428Z,99.90
2019-02-23T09:53:42.618Z,99.90
2019-02-23T09:59:39.932Z,99.90
2019-02-23T10:05:20.463Z,99.90
2019-02-23T10:07:50.124Z,99.90
2019-02-23T10:10:37.390Z,99.90
2019-02-23T10:13:33.273Z,99.90
2019-02-23T10:16:03.343Z,99.90
2019-02-23T10:18:36.718Z,99.90
2019-02-23T10:21:30.917Z,99.90
2019-02-23T10:24:00.929Z,99.90
2019-02-23T10:26:35.632Z,99.30
2019-02-23T10:29:06.743Z,98.50
2019-02-23T10:31:36.120Z,96.70
2019-02-23T10:34:13.167Z,97.00
2019-02-23T10:37:01.788Z,96.20
2019-02-23T10:39:31.426Z,96.20
2019-02-23T10:46:00.467Z,94.30
2019-02-23T10:47:15.112Z,93.40
2019-02-23T10:49:44.824Z,93.00
2019-02-23T10:52:14.433Z,93.10
2019-02-23T10:54:43.983Z,91.70
2019-02-23T10:57:13.319Z,91.50
2019-02-23T10:59:42.506Z,87.70
2019-02-23T11:02:11.583Z,85.80
2019-02-23T11:04:40.526Z,87.00
2019-02-23T11:07:09.451Z,87.10
2019-02-23T11:09:38.785Z,87.40
2019-02-23T11:12:07.874Z,83.70
2019-02-23T11:14:36.847Z,82.20
2019-02-23T11:17:05.873Z,78.40
2019-02-23T11:19:34.955Z,79.10
2019-02-23T11:22:03.970Z,78.30
2019-02-23T11:24:33.039Z,79.30
2019-02-23T11:27:02.357Z,80.90
2019-02-23T11:29:31.569Z,79.60
2019-02-23T11:32:00.753Z,76.10
2019-02-23T11:34:29.884Z,75.70
2019-02-23T11:36:58.945Z,72.40
2019-02-23T11:39:27.826Z,70.80
2019-02-23T11:41:56.753Z,67.10
2019-02-23T11:44:25.645Z,64.80
2019-02-23T11:47:01.506Z,66.00
2019-02-23T11:49:25.242Z,67.30
2019-02-23T11:51:54.251Z,67.70
2019-02-23T11:54:23.270Z,67.10
2019-02-23T11:56:52.365Z,67.30
2019-02-23T11:59:21.298Z,67.20
2019-02-23T12:01:50.341Z,65.30
2019-02-23T12:04:19.210Z,62.70
2019-02-23T12:06:48.041Z,61.50
2019-02-23T12:09:16.972Z,58.90
2019-02-23T12:11:45.854Z,57.90
2019-02-23T12:14:14.808Z,57.20
2019-02-23T12:16:43.727Z,55.20
2019-02-23T12:19:12.587Z,54.50
2019-02-23T12:21:41.407Z,54.80
2019-02-23T12:24:10.349Z,56.00
2019-02-23T12:26:39.773Z,55.60
2019-02-23T12:29:08.802Z,56.10
2019-02-23T12:31:37.746Z,54.20
2019-02-23T12:34:06.641Z,53.40
2019-02-23T12:36:35.450Z,51.00
2019-02-23T12:39:05.182Z,51.50
2019-02-23T12:41:34.151Z,51.10
2019-02-23T12:44:03.075Z,50.90
2019-02-23T12:46:32.074Z,50.60
2019-02-23T12:49:01.382Z,51.80
2019-02-23T12:51:30.199Z,52.40
2019-02-23T12:53:59.449Z,51.60
2019-02-23T12:56:28.477Z,51.90
2019-02-23T12:58:57.498Z,51.50
2019-02-23T13:01:26.561Z,51.80
2019-02-23T13:03:55.566Z,52.50
2019-02-23T13:06:24.719Z,52.40
2019-02-23T13:09:19.972Z,52.00
2019-02-23T13:11:58.855Z,52.50
2019-02-23T13:15:17.881Z,53.30
2019-02-23T13:18:27.506Z,53.70
2019-02-23T13:21:24.917Z,53.70
2019-02-23T13:24:16.031Z,53.50
2019-02-23T13:27:38.114Z,53.50
2019-02-23T13:30:45.830Z,54.70
2019-02-23T13:34:10.847Z,54.20
2019-02-23T13:37:30.130Z,54.30
2019-02-23T13:40:27.081Z,54.40
2019-02-23T13:43:25.133Z,55.40
2019-02-23T13:46:25.568Z,54.60
2019-02-23T13:49:31.516Z,55.20
2019-02-23T13:52:35.307Z,55.40
2019-02-23T13:55:35.469Z,55.50
2019-02-23T13:58:11.152Z,55.20
2019-02-23T14:01:31.523Z,55.20
2019-02-23T14:04:37.208Z,54.10
2019-02-23T14:07:32.883Z,53.70
2019-02-23T14:10:27.438Z,54.50
2019-02-23T14:13:34.690Z,54.70
2019-02-23T14:17:05.763Z,54.20
2019-02-23T14:20:09.623Z,54.30
2019-02-23T14:23:05.995Z,54.90
2019-02-23T14:26:03.104Z,54.70
2019-02-23T14:28:50.309Z,53.90
2019-02-23T14:31:46.180Z,53.90
2019-02-23T14:34:49.058Z,53.60
2019-02-23T14:37:54.677Z,53.70
2019-02-23T14:41:01.124Z,54.60
2019-02-23T14:44:14.518Z,54.90
2019-02-23T14:47:13.130Z,56.00
2019-02-23T14:50:28.993Z,56.80
2019-02-23T14:53:24.305Z,57.60
2019-02-23T14:56:30.320Z,58.30
2019-02-23T14:59:43.147Z,59.30
2019-02-23T15:03:07.588Z,59.50
2019-02-23T15:06:04.334Z,59.10
2019-02-23T15:08:58.832Z,59.60
2019-02-23T15:11:53.985Z,60.60
2019-02-23T15:15:10.202Z,61.00
2019-02-23T15:18:24.861Z,61.10
2019-02-23T15:21:43.785Z,61.20
2019-02-23T15:24:59.937Z,61.30
2019-02-23T15:27:57.138Z,62.60
2019-02-23T15:31:14.552Z,63.30
2019-02-23T15:34:05.614Z,63.90
2019-02-23T15:37:15.757Z,63.50
2019-02-23T15:40:25.240Z,63.50
2019-02-23T15:43:20.747Z,65.30
2019-02-23T15:46:16.720Z,65.30
2019-02-23T15:49:22.665Z,66.00
2019-02-23T15:51:51.790Z,65.90
2019-02-23T15:54:20.851Z,65.80
2019-02-23T15:56:49.909Z,65.90
2019-02-23T15:59:18.886Z,66.70
2019-02-23T16:01:48.144Z,67.10
2019-02-23T16:04:17.069Z,66.70
2019-02-23T16:06:46.086Z,66.90
2019-02-23T16:09:15.648Z,67.40
2019-02-23T16:11:45.356Z,68.20
2019-02-23T16:14:14.444Z,70.10
2019-02-23T16:16:43.443Z,70.30
2019-02-23T16:19:12.354Z,70.80
2019-02-23T16:21:41.266Z,70.00
2019-02-23T16:24:10.180Z,70.50
2019-02-23T16:26:39.341Z,71.10
2019-02-23T16:29:08.281Z,71.40
2019-02-23T16:31:37.234Z,71.70
2019-02-23T16:34:07.338Z,71.50
2019-02-23T16:36:36.610Z,72.40
2019-02-23T16:39:10.710Z,73.00
2019-02-23T16:41:39.942Z,73.70
2019-02-23T16:44:09.041Z,74.90
2019-02-23T16:46:38.033Z,75.80
2019-02-23T16:49:07.062Z,76.50
2019-02-23T16:51:36.105Z,77.80
2019-02-23T16:54:05.030Z,79.30
2019-02-23T16:56:34.021Z,78.90
2019-02-23T16:59:03.163Z,79.60
2019-02-23T17:01:32.178Z,81.20
2019-02-23T17:04:01.006Z,81.20
2019-02-23T17:06:32.767Z,81.40
2019-02-23T17:09:00.574Z,81.80
2019-02-23T17:11:29.478Z,81.60
2019-02-23T17:13:58.305Z,82.30
2019-02-23T17:16:27.237Z,82.10
2019-02-23T17:18:56.177Z,83.30
2019-02-23T17:21:25.289Z,83.80
2019-02-23T17:23:54.302Z,85.30
2019-02-23T17:26:23.599Z,85.50
2019-02-23T17:28:52.534Z,85.30
2019-02-23T17:31:21.347Z,86.10
2019-02-23T17:33:50.277Z,85.80
2019-02-23T17:36:19.105Z,86.30
2019-02-23T17:38:47.915Z,87.10
2019-02-23T17:41:16.838Z,87.40
2019-02-23T17:43:45.698Z,88.10
2019-02-23T17:46:14.675Z,89.00
2019-02-23T17:48:43.666Z,88.70
2019-02-23T17:51:12.477Z,88.30
2019-02-23T17:53:41.327Z,89.50
2019-02-23T17:56:12.373Z,90.30
2019-02-23T17:58:40.921Z,90.60
2019-02-23T18:01:09.790Z,90.70
2019-02-23T18:03:38.729Z,91.40
2019-02-23T18:06:07.603Z,90.90
2019-02-23T18:08:36.830Z,90.90
2019-02-23T18:11:06.556Z,91.80
2019-02-23T18:13:35.377Z,92.20
2019-02-23T18:16:04.345Z,92.80
2019-02-23T18:18:33.162Z,92.80
2019-02-23T18:21:02.000Z,92.90
2019-02-23T18:23:30.961Z,92.70
2019-02-23T18:25:59.979Z,92.90
2019-02-23T18:28:28.921Z,92.90
2019-02-23T18:30:57.812Z,93.20
2019-02-23T18:33:26.610Z,93.50
2019-02-23T18:35:55.564Z,94.10
2019-02-23T18:38:24.430Z,94.70
2019-02-23T18:40:53.467Z,95.20
2019-02-23T18:43:22.557Z,94.90
2019-02-23T18:45:53.772Z,94.80
2019-02-23T18:48:22.929Z,95.00
2019-02-23T18:50:51.819Z,94.80
2019-02-23T18:53:20.995Z,95.40
2019-02-23T18:55:50.043Z,95.20
2019-02-23T18:58:19.177Z,95.80
2019-02-23T19:04:30.831Z,95.50
2019-02-23T19:07:22.998Z,95.90
2019-02-23T19:10:15.400Z,96.70
2019-02-23T19:12:44.801Z,96.40
2019-02-23T19:15:18.247Z,97.10
2019-02-23T19:24:55.383Z,97.90
2019-02-23T19:27:51.934Z,98.20
2019-02-23T19:30:58.135Z,98.20
2019-02-23T19:33:33.076Z,98.70
2019-02-23T19:36:02.526Z,98.60
2019-02-23T19:41:54.128Z,99.20
2019-02-23T19:44:25.675Z,99.70
2019-02-23T19:47:21.757Z,99.90
2019-02-23T19:49:53.599Z,99.90
2019-02-23T19:55:48.788Z,99.40
2019-02-23T20:05:52.956Z,99.40
2019-02-23T20:11:52.637Z,99.90
2019-02-23T20:15:09.561Z,99.80
2019-02-23T20:24:49.978Z,99.90
2019-02-23T20:27:54.544Z,99.90
2019-02-23T20:44:08.867Z,99.90
2019-02-23T20:53:46.618Z,99.90
2019-02-23T20:57:07.908Z,99.90
2019-02-23T21:00:29.669Z,99.90
2019-02-23T21:03:20.593Z,99.90
2019-02-23T21:05:53.116Z,99.90
2019-02-23T21:16:02.739Z,99.90
2019-02-23T21:18:50.090Z,99.90
2019-02-23T21:24:18.547Z,99.90
2019-02-23T21:26:59.435Z,99.90
2019-02-23T21:32:46.302Z,99.90
2019-02-23T21:42:48.553Z,99.90
2019-02-23T21:52:18.505Z,99.90
2019-02-23T22:02:12.232Z,99.90
2019-02-23T22:04:44.028Z,99.90
2019-02-23T22:07:16.099Z,99.90
2019-02-23T22:12:20.105Z,99.90
2019-02-23T22:19:35.830Z,99.90
2019-02-23T22:29:13.228Z,99.90
2019-02-23T22:49:22.792Z,99.90
2019-02-23T23:03:07.219Z,99.90
2019-02-23T23:13:52.679Z,99.90
